logo
Search for airport 
image banner adimage banner adimage banner ad
image banner ad

YPSI - Passage Island

Located in , Australia

ICAO - , IATA -

Data provided by Airmate  

General information

Coordinates: S40°29'54" E148°20'12"
Elevation is 118 feet MSL.
 
View others Airports in Tasmania

Operational data

Special qualification required
Current time UTC:
Current local time:
Weather at : - ( 0 km )
METAR: KAFP 180031Z AUTO 14004KT 10SM OVC090 23/21 A2985 RMK AO2 T02320206
View NOTAMs / SUP AIP / TFR affecting this airport [VIEW]
Communications frequencies: [VIEW]

Runways:

Airport contact information

Address: Australia

Satellite view of YPSI